Élőkép

Információk

Albatrosz Repülő Egyesület
8000 Székesfehérvár,
Radványi utca 6.

Adószám:
19092908-2-07

Bankszámla szám:
Budapest Bank
10102952-01361819-00000001

Telefon: +36 30 9598-897

Telephey: Börgönd repülőtér

Börgöndi repülõtér

LHBP METAR/TAF

[source: ADDS]
METAR
TAF LHBP 291100Z 2912/3012 20006KT CAVOK BECMG 2915/2918 VRB03KT TEMPO 3008/3012 17006KT 9999 FEW033 SCT090 TAF
TAF LHBP 291100Z 2912/3012 20006KT CAVOK BECMG 2915/2918 VRB03KT TEMPO 3008/3012 17006KT 9999 FEW033 SCT090 =
SR / SS: 04:04 / 17:33 UTC (Börgönd 2014-08-29)
Hungarian Chinese (Simplified) Croatian Czech English Finnish French German Hebrew Italian Japanese Polish Portuguese Romanian Russian Serbian Slovak Slovenian Spanish

Belépés tagoknak